createdAt,value
2022-10-25T00:01:20.886Z,13.50
2022-10-25T00:03:49.273Z,13.50
2022-10-25T00:06:19.034Z,13.40
2022-10-25T00:08:47.460Z,13.40
2022-10-25T00:11:20.933Z,13.40
2022-10-25T00:13:50.728Z,13.40
2022-10-25T00:16:20.845Z,13.40
2022-10-25T00:18:49.141Z,13.40
2022-10-25T00:21:18.886Z,13.40
2022-10-25T00:23:47.179Z,13.30
2022-10-25T00:26:15.625Z,13.40
2022-10-25T00:28:44.013Z,13.30
2022-10-25T00:31:13.806Z,13.30
2022-10-25T00:33:42.507Z,13.30
2022-10-25T00:36:12.367Z,13.30
2022-10-25T00:38:42.169Z,13.30
2022-10-25T00:41:11.144Z,13.40
2022-10-25T00:43:40.901Z,13.40
2022-10-25T00:46:12.568Z,13.40
2022-10-25T00:48:40.804Z,13.40
2022-10-25T00:51:09.080Z,13.40
2022-10-25T00:53:38.176Z,13.40
2022-10-25T00:56:12.071Z,13.30
2022-10-25T00:58:40.341Z,13.30
2022-10-25T01:01:08.936Z,13.30
2022-10-25T01:03:38.567Z,13.30
2022-10-25T01:06:07.550Z,13.30
2022-10-25T01:08:35.680Z,13.20
2022-10-25T01:11:03.796Z,13.20
2022-10-25T01:13:33.299Z,13.20
2022-10-25T01:16:09.176Z,13.20
2022-10-25T01:18:43.439Z,13.20
2022-10-25T01:21:40.268Z,13.20
2022-10-25T01:24:38.588Z,13.20
2022-10-25T01:27:46.415Z,13.30
2022-10-25T01:30:18.980Z,13.30
2022-10-25T01:32:57.969Z,13.30
2022-10-25T01:35:29.475Z,13.40
2022-10-25T01:38:10.611Z,13.40
2022-10-25T01:40:50.771Z,13.40
2022-10-25T01:43:28.103Z,13.50
2022-10-25T01:46:01.392Z,13.50
2022-10-25T01:48:33.562Z,13.60
2022-10-25T01:51:07.341Z,13.60
2022-10-25T01:53:35.597Z,13.60
2022-10-25T01:56:03.716Z,13.70
2022-10-25T01:58:37.602Z,13.70
2022-10-25T02:01:24.632Z,13.70
2022-10-25T02:03:56.700Z,13.70
2022-10-25T02:06:29.643Z,13.70
2022-10-25T02:09:02.018Z,13.70
2022-10-25T02:11:30.807Z,13.70
2022-10-25T02:14:07.170Z,13.70
2022-10-25T02:16:38.795Z,13.60
2022-10-25T02:19:09.585Z,13.60
2022-10-25T02:21:37.650Z,13.60
2022-10-25T02:24:09.883Z,13.60
2022-10-25T02:26:38.127Z,13.60
2022-10-25T02:29:06.454Z,13.60
2022-10-25T02:31:35.051Z,13.60
2022-10-25T02:34:03.136Z,13.70
2022-10-25T02:36:32.859Z,13.70
2022-10-25T02:39:01.028Z,13.80
2022-10-25T02:41:29.306Z,13.80
2022-10-25T02:43:57.359Z,13.90
2022-10-25T02:46:25.407Z,13.90
2022-10-25T02:48:53.556Z,13.90
2022-10-25T02:51:22.935Z,13.90
2022-10-25T02:53:52.405Z,13.90
2022-10-25T02:56:21.822Z,13.90
2022-10-25T02:58:51.250Z,13.90
2022-10-25T03:01:21.214Z,13.90
2022-10-25T03:03:49.539Z,13.90
2022-10-25T03:06:17.665Z,13.90
2022-10-25T03:08:46.285Z,13.90
2022-10-25T03:11:16.865Z,14.00
2022-10-25T03:13:45.004Z,14.00
2022-10-25T03:16:13.098Z,14.00
2022-10-25T03:18:41.260Z,14.00
2022-10-25T03:21:09.280Z,14.00
2022-10-25T03:23:37.399Z,14.00
2022-10-25T03:26:05.947Z,14.00
2022-10-25T03:28:35.421Z,14.00
2022-10-25T03:31:03.722Z,14.00
2022-10-25T03:33:31.883Z,14.00
2022-10-25T03:35:59.959Z,14.00
2022-10-25T03:38:28.040Z,14.00
2022-10-25T03:40:56.164Z,14.00
2022-10-25T03:43:24.464Z,13.90
2022-10-25T03:45:53.938Z,13.90
2022-10-25T03:48:22.084Z,13.90
2022-10-25T03:50:50.240Z,13.90
2022-10-25T03:53:18.311Z,13.90
2022-10-25T03:55:46.396Z,13.90
2022-10-25T03:58:14.540Z,13.90
2022-10-25T04:00:42.698Z,13.90
2022-10-25T04:03:12.317Z,13.90
2022-10-25T04:05:40.425Z,13.90
2022-10-25T04:08:08.494Z,13.80
2022-10-25T04:10:36.678Z,13.80
2022-10-25T04:13:04.797Z,13.80
2022-10-25T04:15:32.879Z,13.80
2022-10-25T04:18:01.091Z,13.80
2022-10-25T04:20:30.566Z,13.80
2022-10-25T04:22:58.716Z,13.80
2022-10-25T04:25:28.013Z,13.70
2022-10-25T04:27:56.208Z,13.70
2022-10-25T04:30:24.300Z,13.70
2022-10-25T04:32:52.627Z,13.70
2022-10-25T04:35:20.775Z,13.70
2022-10-25T04:37:51.912Z,13.70
2022-10-25T04:40:24.041Z,13.60
2022-10-25T04:42:53.153Z,13.70
2022-10-25T04:45:21.250Z,13.70
2022-10-25T04:47:49.605Z,13.60
2022-10-25T04:50:18.258Z,13.60
2022-10-25T04:52:46.833Z,13.60
2022-10-25T04:55:16.734Z,13.60
2022-10-25T04:57:44.783Z,13.60
2022-10-25T05:00:14.271Z,13.60
2022-10-25T05:02:42.404Z,13.60
2022-10-25T05:05:11.359Z,13.50
2022-10-25T05:07:39.453Z,13.50
2022-10-25T05:10:08.011Z,13.50
2022-10-25T05:12:37.864Z,13.40
2022-10-25T05:15:06.767Z,13.40
2022-10-25T05:17:34.963Z,13.30
2022-10-25T05:20:03.286Z,13.30
2022-10-25T05:22:32.040Z,13.30
2022-10-25T05:25:00.124Z,13.30
2022-10-25T05:27:28.253Z,13.30
2022-10-25T05:29:57.686Z,13.30
2022-10-25T05:32:25.890Z,13.30
2022-10-25T05:34:54.024Z,13.30
2022-10-25T05:37:22.079Z,13.30
2022-10-25T05:39:50.150Z,13.40
2022-10-25T05:42:18.234Z,13.30
2022-10-25T05:44:46.334Z,13.30
2022-10-25T05:47:15.786Z,13.30
2022-10-25T05:49:43.923Z,13.30
2022-10-25T05:52:12.386Z,13.30
2022-10-25T05:54:40.459Z,13.20
2022-10-25T05:57:08.737Z,13.20
2022-10-25T05:59:37.148Z,13.20
2022-10-25T06:02:05.408Z,13.20
2022-10-25T06:04:35.066Z,13.20
2022-10-25T06:07:03.143Z,13.30
2022-10-25T06:09:31.256Z,13.30
2022-10-25T06:11:59.426Z,13.30
2022-10-25T06:14:27.478Z,13.40
2022-10-25T06:16:55.574Z,13.40
2022-10-25T06:19:23.682Z,13.40
2022-10-25T06:21:55.040Z,13.40
2022-10-25T06:24:23.114Z,13.50
2022-10-25T06:26:51.219Z,13.50
2022-10-25T06:29:19.523Z,13.50
2022-10-25T06:31:47.592Z,13.50
2022-10-25T06:34:15.694Z,13.50
2022-10-25T06:36:43.840Z,13.50
2022-10-25T06:39:13.338Z,13.60
2022-10-25T06:41:41.422Z,13.60
2022-10-25T06:44:09.642Z,13.60
2022-10-25T06:49:27.468Z,13.70
2022-10-25T06:51:55.604Z,13.70
2022-10-25T06:54:26.710Z,13.80
2022-10-25T06:56:54.799Z,13.90
2022-10-25T06:59:23.688Z,13.90
2022-10-25T07:01:52.490Z,14.00
2022-10-25T07:04:20.710Z,14.00
2022-10-25T07:06:51.454Z,14.10
2022-10-25T07:09:23.935Z,14.10
2022-10-25T07:11:52.056Z,14.20
2022-10-25T07:14:20.209Z,14.20
2022-10-25T07:16:48.334Z,14.30
2022-10-25T07:19:16.468Z,14.30
2022-10-25T07:21:45.150Z,14.40
2022-10-25T07:24:13.511Z,14.40
2022-10-25T07:26:42.972Z,14.40
2022-10-25T07:29:11.142Z,14.50
2022-10-25T07:31:41.864Z,14.50
2022-10-25T07:34:12.583Z,14.50
2022-10-25T07:36:40.672Z,14.50
2022-10-25T07:39:08.792Z,14.50
2022-10-25T07:41:36.919Z,14.50
2022-10-25T07:44:06.524Z,14.50
2022-10-25T07:46:34.660Z,14.50
2022-10-25T07:49:02.927Z,14.50
2022-10-25T07:51:31.053Z,14.50
2022-10-25T07:53:59.106Z,14.60
2022-10-25T07:56:27.241Z,14.60
2022-10-25T07:58:55.377Z,14.60
2022-10-25T08:01:26.376Z,14.70
2022-10-25T08:03:55.617Z,14.70
2022-10-25T08:06:24.287Z,14.70
2022-10-25T08:08:52.380Z,14.80
2022-10-25T08:11:20.517Z,14.80
2022-10-25T08:13:49.924Z,14.90
2022-10-25T08:16:18.150Z,15.00
2022-10-25T08:18:47.646Z,15.10
2022-10-25T08:21:16.033Z,15.20
2022-10-25T08:23:44.129Z,15.20
2022-10-25T08:26:12.229Z,15.30
2022-10-25T08:28:40.306Z,15.30
2022-10-25T08:31:08.511Z,15.30
2022-10-25T08:33:36.788Z,15.40
2022-10-25T08:36:07.995Z,15.50
2022-10-25T08:38:36.146Z,15.50
2022-10-25T08:41:10.002Z,15.50
2022-10-25T08:44:10.133Z,15.50
2022-10-25T08:46:40.170Z,15.40
2022-10-25T08:49:15.332Z,15.40
2022-10-25T08:51:47.260Z,15.30
2022-10-25T08:54:24.544Z,15.30
2022-10-25T08:57:10.754Z,15.20
2022-10-25T08:59:44.238Z,15.30
2022-10-25T09:02:19.537Z,15.30
2022-10-25T09:04:47.639Z,15.30
2022-10-25T09:07:54.716Z,15.30
2022-10-25T09:10:35.716Z,15.40
2022-10-25T09:13:10.876Z,15.50
2022-10-25T09:15:53.511Z,15.50
2022-10-25T09:18:23.379Z,15.60
2022-10-25T09:20:52.501Z,15.70
2022-10-25T09:23:28.957Z,15.80
2022-10-25T09:26:04.186Z,15.90
2022-10-25T09:28:52.141Z,16.00
2022-10-25T09:31:23.133Z,16.10
2022-10-25T09:33:55.197Z,16.20
2022-10-25T09:36:24.277Z,16.30
2022-10-25T09:38:54.734Z,16.40
2022-10-25T09:41:26.020Z,16.40
2022-10-25T09:43:56.920Z,16.40
2022-10-25T09:46:28.774Z,16.50
2022-10-25T09:48:59.768Z,16.50
2022-10-25T09:51:33.199Z,16.50
2022-10-25T09:54:03.666Z,16.40
2022-10-25T09:56:31.756Z,16.30
2022-10-25T09:59:04.373Z,16.30
2022-10-25T10:01:32.639Z,16.30
2022-10-25T10:04:07.348Z,16.20
2022-10-25T10:06:37.282Z,16.10
2022-10-25T10:09:07.546Z,16.10
2022-10-25T10:11:35.814Z,16.10
2022-10-25T10:14:09.986Z,16.00
2022-10-25T10:16:43.163Z,16.00
2022-10-25T10:19:19.152Z,16.00
2022-10-25T10:21:48.570Z,16.10
2022-10-25T10:24:20.651Z,16.20
2022-10-25T10:26:51.621Z,16.20
2022-10-25T10:29:22.103Z,16.30
2022-10-25T10:31:51.606Z,16.30
2022-10-25T10:34:26.559Z,16.40
2022-10-25T10:37:14.612Z,16.30
2022-10-25T10:39:52.248Z,16.40
2022-10-25T10:42:21.923Z,16.40
2022-10-25T10:45:16.426Z,16.50
2022-10-25T10:47:46.104Z,16.50
2022-10-25T10:50:23.291Z,16.50
2022-10-25T10:52:59.788Z,16.60
2022-10-25T10:55:32.464Z,16.60
2022-10-25T10:58:04.036Z,16.60
2022-10-25T11:00:32.413Z,16.60
2022-10-25T11:03:00.529Z,16.60
2022-10-25T11:05:30.203Z,16.60
2022-10-25T11:07:59.485Z,16.60
2022-10-25T11:10:38.617Z,16.60
2022-10-25T11:13:15.553Z,16.60
2022-10-25T11:16:21.984Z,16.70
2022-10-25T11:19:03.856Z,16.80
2022-10-25T11:21:49.787Z,16.90
2022-10-25T11:24:27.557Z,17.00
2022-10-25T11:27:02.830Z,17.00
2022-10-25T11:29:56.887Z,17.20
2022-10-25T11:33:21.500Z,17.40
2022-10-25T11:35:59.852Z,17.50
2022-10-25T11:38:36.306Z,17.50
2022-10-25T11:41:07.695Z,17.50
2022-10-25T11:43:58.511Z,17.70
2022-10-25T11:46:32.019Z,17.60
2022-10-25T11:49:28.959Z,17.60
2022-10-25T11:52:11.192Z,17.70
2022-10-25T11:54:42.218Z,17.80
2022-10-25T11:57:15.847Z,17.90
2022-10-25T11:59:54.013Z,17.90
2022-10-25T12:02:51.179Z,17.90
2022-10-25T12:05:27.062Z,17.90
2022-10-25T12:08:00.942Z,17.90
2022-10-25T12:10:33.429Z,17.80
2022-10-25T12:13:03.372Z,17.80
2022-10-25T12:15:37.495Z,17.90
2022-10-25T12:18:06.629Z,17.90
2022-10-25T12:23:10.760Z,17.80
2022-10-25T12:25:41.283Z,17.70
2022-10-25T12:28:17.602Z,17.60
2022-10-25T12:30:47.059Z,17.60
2022-10-25T12:33:21.501Z,17.60
2022-10-25T12:35:51.268Z,17.50
2022-10-25T12:38:24.883Z,17.40
2022-10-25T12:40:52.984Z,17.50
2022-10-25T12:43:24.501Z,17.60
2022-10-25T12:46:22.179Z,17.70
2022-10-25T12:49:57.226Z,17.90
2022-10-25T12:52:30.656Z,18.20
2022-10-25T12:55:30.205Z,18.20
2022-10-25T12:58:29.056Z,18.10
2022-10-25T13:01:16.350Z,17.90
2022-10-25T13:04:01.644Z,17.70
2022-10-25T13:06:34.647Z,17.70
2022-10-25T13:09:08.214Z,17.70
2022-10-25T13:11:39.300Z,17.70
2022-10-25T13:14:22.348Z,17.80
2022-10-25T13:16:51.858Z,17.90
2022-10-25T13:19:53.632Z,17.90
2022-10-25T13:22:39.472Z,17.90
2022-10-25T13:25:18.370Z,17.90
2022-10-25T13:28:20.488Z,17.80
2022-10-25T13:30:48.625Z,17.70
2022-10-25T13:33:33.602Z,17.60
2022-10-25T13:36:05.886Z,17.40
2022-10-25T13:38:39.409Z,17.20
2022-10-25T13:41:18.021Z,17.00
2022-10-25T13:43:59.516Z,16.90
2022-10-25T13:46:31.008Z,16.80
2022-10-25T13:49:01.250Z,16.70
2022-10-25T13:51:29.943Z,16.60
2022-10-25T13:53:58.035Z,16.60
2022-10-25T13:56:36.380Z,16.50
2022-10-25T13:59:04.611Z,16.50
2022-10-25T14:01:57.300Z,16.40
2022-10-25T14:04:38.936Z,16.40
2022-10-25T14:07:48.551Z,16.30
2022-10-25T14:10:25.016Z,16.10
2022-10-25T14:12:54.185Z,16.00
2022-10-25T14:15:34.470Z,16.00
2022-10-25T14:18:06.362Z,15.90
2022-10-25T14:20:35.908Z,15.80
2022-10-25T14:23:05.115Z,15.70
2022-10-25T14:25:36.196Z,15.70
2022-10-25T14:28:09.152Z,15.60
2022-10-25T14:30:40.383Z,15.60
2022-10-25T14:33:22.120Z,15.60
2022-10-25T14:35:52.463Z,15.60
2022-10-25T14:38:21.851Z,15.50
2022-10-25T14:40:54.828Z,15.50
2022-10-25T14:43:31.479Z,15.50
2022-10-25T14:46:02.746Z,15.50
2022-10-25T14:48:31.176Z,15.50
2022-10-25T14:51:01.841Z,15.50
2022-10-25T14:53:29.993Z,15.50
2022-10-25T14:55:59.504Z,15.50
2022-10-25T14:58:27.707Z,15.40
2022-10-25T15:00:58.023Z,15.40
2022-10-25T15:03:27.525Z,15.40
2022-10-25T15:05:55.684Z,15.30
2022-10-25T15:08:26.686Z,15.30
2022-10-25T15:10:57.874Z,15.20
2022-10-25T15:13:29.883Z,15.20
2022-10-25T15:15:58.235Z,15.10
2022-10-25T15:18:33.967Z,15.10
2022-10-25T15:21:11.091Z,15.00
2022-10-25T15:23:42.046Z,14.90
2022-10-25T15:26:27.489Z,14.90
2022-10-25T15:28:57.216Z,14.80
2022-10-25T15:31:26.132Z,14.70
2022-10-25T15:33:59.172Z,14.70
2022-10-25T15:36:28.614Z,14.60
2022-10-25T15:39:10.432Z,14.60
2022-10-25T15:41:42.392Z,14.50
2022-10-25T15:44:10.514Z,14.50
2022-10-25T15:46:40.047Z,14.40
2022-10-25T15:49:08.646Z,14.40
2022-10-25T15:51:39.625Z,14.30
2022-10-25T15:54:14.011Z,14.30
2022-10-25T15:56:42.215Z,14.30
2022-10-25T15:59:10.393Z,14.30
2022-10-25T16:01:39.153Z,14.30
2022-10-25T16:04:07.754Z,14.30
2022-10-25T16:06:36.339Z,14.30
2022-10-25T16:09:04.677Z,14.20
2022-10-25T16:11:34.546Z,14.20
2022-10-25T16:14:03.988Z,14.10
2022-10-25T16:16:40.303Z,14.10
2022-10-25T16:19:14.028Z,14.00
2022-10-25T16:21:42.583Z,13.90
2022-10-25T16:24:12.278Z,13.80
2022-10-25T16:26:44.097Z,13.80
2022-10-25T16:29:16.502Z,13.70
2022-10-25T16:31:44.815Z,13.70
2022-10-25T16:34:15.623Z,13.60
2022-10-25T16:36:44.428Z,13.50
2022-10-25T16:39:12.690Z,13.50
2022-10-25T16:41:43.299Z,13.40
2022-10-25T16:44:12.278Z,13.40
2022-10-25T16:46:40.563Z,13.30
2022-10-25T16:49:09.685Z,13.30
2022-10-25T16:51:38.272Z,13.20
2022-10-25T16:54:07.124Z,13.10
2022-10-25T16:56:35.592Z,13.10
2022-10-25T16:59:05.323Z,13.10
2022-10-25T17:01:35.599Z,13.00
2022-10-25T17:04:04.833Z,13.00
2022-10-25T17:06:41.228Z,13.00
2022-10-25T17:09:09.925Z,12.90
2022-10-25T17:11:38.600Z,12.90
2022-10-25T17:14:09.757Z,12.80
2022-10-25T17:16:38.178Z,12.80
2022-10-25T17:19:06.412Z,12.80
2022-10-25T17:21:35.895Z,12.80
2022-10-25T17:24:04.644Z,12.70
2022-10-25T17:26:32.956Z,12.70
2022-10-25T17:29:01.448Z,12.70
2022-10-25T17:31:32.691Z,12.70
2022-10-25T17:34:01.065Z,12.60
2022-10-25T17:36:31.671Z,12.60
2022-10-25T17:38:59.988Z,12.50
2022-10-25T17:41:28.522Z,12.50
2022-10-25T17:43:57.047Z,12.50
2022-10-25T17:46:27.783Z,12.50
2022-10-25T17:48:58.491Z,12.40
2022-10-25T17:51:26.884Z,12.40
2022-10-25T17:53:55.471Z,12.40
2022-10-25T17:56:24.905Z,12.30
2022-10-25T17:58:53.287Z,12.30
2022-10-25T18:01:22.712Z,12.30
2022-10-25T18:03:51.210Z,12.30
2022-10-25T18:08:54.194Z,12.20
2022-10-25T18:11:23.955Z,12.20
2022-10-25T18:13:53.371Z,12.20
2022-10-25T18:16:23.329Z,12.20
2022-10-25T18:18:51.603Z,12.20
2022-10-25T18:21:24.132Z,12.10
2022-10-25T18:23:55.555Z,12.10
2022-10-25T18:26:24.488Z,12.10
2022-10-25T18:28:52.889Z,12.00
2022-10-25T18:31:21.275Z,12.00
2022-10-25T18:33:49.459Z,12.00
2022-10-25T18:36:19.347Z,11.90
2022-10-25T18:38:49.480Z,11.90
2022-10-25T18:41:21.878Z,11.90
2022-10-25T18:43:50.182Z,11.80
2022-10-25T18:46:18.558Z,11.80
2022-10-25T18:48:51.573Z,11.80
2022-10-25T18:51:20.327Z,11.80
2022-10-25T18:53:49.929Z,11.80
2022-10-25T18:56:21.123Z,11.80
2022-10-25T18:58:50.934Z,11.80
2022-10-25T19:01:22.774Z,11.70
2022-10-25T19:03:51.512Z,11.70
2022-10-25T19:06:20.008Z,11.70
2022-10-25T19:08:50.158Z,11.60
2022-10-25T19:11:18.451Z,11.60
2022-10-25T19:13:49.081Z,11.60
2022-10-25T19:16:19.585Z,11.60
2022-10-25T19:18:47.749Z,11.60
2022-10-25T19:21:17.113Z,11.60
2022-10-25T19:23:46.210Z,11.50
2022-10-25T19:26:17.033Z,11.50
2022-10-25T19:28:45.123Z,11.50
2022-10-25T19:31:14.686Z,11.50
2022-10-25T19:33:46.504Z,11.40
2022-10-25T19:36:14.657Z,11.40
2022-10-25T19:38:43.167Z,11.40
2022-10-25T19:41:12.872Z,11.30
2022-10-25T19:43:42.338Z,11.30
2022-10-25T19:46:10.559Z,11.30
2022-10-25T19:48:38.653Z,11.20
2022-10-25T19:51:07.798Z,11.20
2022-10-25T19:53:35.857Z,11.20
2022-10-25T19:56:05.729Z,11.10
2022-10-25T19:58:34.431Z,11.10
2022-10-25T20:01:06.677Z,11.10
2022-10-25T20:03:35.774Z,11.00
2022-10-25T20:06:06.501Z,11.00
2022-10-25T20:08:34.875Z,11.00
2022-10-25T20:11:03.166Z,10.90
2022-10-25T20:13:31.518Z,10.90
2022-10-25T20:15:59.826Z,10.90
2022-10-25T20:18:31.600Z,10.90
2022-10-25T20:21:02.026Z,10.80
2022-10-25T20:23:30.209Z,10.80
2022-10-25T20:25:58.372Z,10.80
2022-10-25T20:28:26.436Z,10.80
2022-10-25T20:30:54.613Z,10.80
2022-10-25T20:33:22.747Z,10.70
2022-10-25T20:35:53.191Z,10.80
2022-10-25T20:38:21.277Z,10.70
2022-10-25T20:40:49.453Z,10.80
2022-10-25T20:43:17.545Z,10.80
2022-10-25T20:45:48.078Z,10.80
2022-10-25T20:48:16.363Z,10.70
2022-10-25T20:50:49.507Z,10.80
2022-10-25T20:53:21.013Z,10.70
2022-10-25T20:55:49.527Z,10.70
2022-10-25T20:58:17.956Z,10.70
2022-10-25T21:00:46.205Z,10.70
2022-10-25T21:03:14.497Z,10.60
2022-10-25T21:05:45.093Z,10.60
2022-10-25T21:08:13.312Z,10.60
2022-10-25T21:10:43.293Z,10.50
2022-10-25T21:13:11.812Z,10.50
2022-10-25T21:15:40.753Z,10.50
2022-10-25T21:18:08.782Z,10.40
2022-10-25T21:20:38.518Z,10.40
2022-10-25T21:23:06.688Z,10.30
2022-10-25T21:25:34.862Z,10.30
2022-10-25T21:28:04.400Z,10.30
2022-10-25T21:30:32.567Z,10.30
2022-10-25T21:33:00.782Z,10.20
2022-10-25T21:35:28.966Z,10.20
2022-10-25T21:37:58.970Z,10.20
2022-10-25T21:40:27.233Z,10.10
2022-10-25T21:42:56.283Z,10.10
2022-10-25T21:45:25.970Z,10.10
2022-10-25T21:47:54.239Z,10.10
2022-10-25T21:50:22.516Z,10.00
2022-10-25T21:52:50.690Z,10.00
2022-10-25T21:55:18.822Z,10.00
2022-10-25T21:57:51.826Z,9.90
2022-10-25T22:00:22.376Z,9.90
2022-10-25T22:02:51.937Z,9.90
2022-10-25T22:05:20.041Z,9.80
2022-10-25T22:07:49.043Z,9.80
2022-10-25T22:10:17.543Z,9.80
2022-10-25T22:12:45.670Z,9.80
2022-10-25T22:15:13.868Z,9.70
2022-10-25T22:17:41.898Z,9.70
2022-10-25T22:20:12.219Z,9.70
2022-10-25T22:22:40.338Z,9.70
2022-10-25T22:25:09.382Z,9.70
2022-10-25T22:27:37.485Z,9.60
2022-10-25T22:30:06.527Z,9.60
2022-10-25T22:32:34.583Z,9.60
2022-10-25T22:35:02.659Z,9.60
2022-10-25T22:37:32.112Z,9.60
2022-10-25T22:40:00.197Z,9.60
2022-10-25T22:42:28.284Z,9.60
2022-10-25T22:44:56.371Z,9.50
2022-10-25T22:47:24.442Z,9.50
2022-10-25T22:49:52.835Z,9.50
2022-10-25T22:52:20.897Z,9.50
2022-10-25T22:54:51.690Z,9.40
2022-10-25T22:57:19.750Z,9.40
2022-10-25T22:59:47.884Z,9.40
2022-10-25T23:02:15.975Z,9.40
2022-10-25T23:04:44.103Z,9.30
2022-10-25T23:07:12.213Z,9.30
2022-10-25T23:09:40.256Z,9.30
2022-10-25T23:12:09.731Z,9.30
2022-10-25T23:14:38.167Z,9.30
2022-10-25T23:17:06.234Z,9.20
2022-10-25T23:19:34.331Z,9.20
2022-10-25T23:22:02.522Z,9.20
2022-10-25T23:24:30.620Z,9.20
2022-10-25T23:26:58.733Z,9.10
2022-10-25T23:29:28.212Z,9.10
2022-10-25T23:31:56.288Z,9.10
2022-10-25T23:36:57.448Z,9.10
2022-10-25T23:39:25.626Z,9.00
2022-10-25T23:41:56.881Z,9.00
2022-10-25T23:44:25.156Z,9.00
2022-10-25T23:46:54.668Z,9.00
2022-10-25T23:49:22.739Z,9.00
2022-10-25T23:51:50.860Z,9.00
2022-10-25T23:54:18.924Z,9.00
2022-10-25T23:56:47.023Z,8.90
2022-10-25T23:59:15.146Z,8.90
